sensor_id;sensor_type;location;lat;lon;timestamp;P1;durP1;ratioP1;P2;durP2;ratioP2
3647;SDS011;1840;48.892;15.312;2022-10-14T00:00:37;62.53;;;31.80;;
3647;SDS011;1840;48.892;15.312;2022-10-14T00:03:05;125.97;;;37.73;;
3647;SDS011;1840;48.892;15.312;2022-10-14T00:05:33;88.50;;;35.07;;
3647;SDS011;1840;48.892;15.312;2022-10-14T00:08:01;86.07;;;35.47;;
3647;SDS011;1840;48.892;15.312;2022-10-14T00:10:29;57.87;;;29.17;;
3647;SDS011;1840;48.892;15.312;2022-10-14T00:12:57;112.50;;;36.90;;
3647;SDS011;1840;48.892;15.312;2022-10-14T00:15:26;66.23;;;32.80;;
3647;SDS011;1840;48.892;15.312;2022-10-14T00:17:54;72.70;;;34.73;;
3647;SDS011;1840;48.892;15.312;2022-10-14T00:20:22;70.50;;;32.30;;
3647;SDS011;1840;48.892;15.312;2022-10-14T00:22:51;59.67;;;31.87;;
3647;SDS011;1840;48.892;15.312;2022-10-14T00:25:19;63.50;;;30.90;;
3647;SDS011;1840;48.892;15.312;2022-10-14T00:27:47;68.80;;;33.40;;
3647;SDS011;1840;48.892;15.312;2022-10-14T00:30:15;57.67;;;31.67;;
3647;SDS011;1840;48.892;15.312;2022-10-14T00:32:44;53.87;;;30.50;;
3647;SDS011;1840;48.892;15.312;2022-10-14T00:35:13;43.57;;;27.83;;
3647;SDS011;1840;48.892;15.312;2022-10-14T00:37:41;53.33;;;29.00;;
3647;SDS011;1840;48.892;15.312;2022-10-14T00:40:09;56.00;;;30.07;;
3647;SDS011;1840;48.892;15.312;2022-10-14T00:42:38;44.27;;;29.40;;
3647;SDS011;1840;48.892;15.312;2022-10-14T00:45:09;49.57;;;30.00;;
3647;SDS011;1840;48.892;15.312;2022-10-14T00:47:40;71.77;;;31.67;;
3647;SDS011;1840;48.892;15.312;2022-10-14T00:50:11;45.50;;;29.00;;
3647;SDS011;1840;48.892;15.312;2022-10-14T00:52:42;48.67;;;28.70;;
3647;SDS011;1840;48.892;15.312;2022-10-14T00:55:12;105.57;;;36.00;;
3647;SDS011;1840;48.892;15.312;2022-10-14T00:57:42;46.83;;;29.10;;
3647;SDS011;1840;48.892;15.312;2022-10-14T01:00:12;50.03;;;29.27;;
3647;SDS011;1840;48.892;15.312;2022-10-14T01:02:44;50.90;;;30.53;;
3647;SDS011;1840;48.892;15.312;2022-10-14T01:05:15;48.60;;;28.60;;
3647;SDS011;1840;48.892;15.312;2022-10-14T01:07:49;49.50;;;28.93;;
3647;SDS011;1840;48.892;15.312;2022-10-14T01:10:28;46.17;;;27.27;;
3647;SDS011;1840;48.892;15.312;2022-10-14T01:13:02;101.20;;;31.40;;
3647;SDS011;1840;48.892;15.312;2022-10-14T01:15:40;51.77;;;29.40;;
3647;SDS011;1840;48.892;15.312;2022-10-14T01:18:19;41.63;;;27.17;;
3647;SDS011;1840;48.892;15.312;2022-10-14T01:21:04;67.60;;;29.50;;
3647;SDS011;1840;48.892;15.312;2022-10-14T01:26:49;38.73;;;23.87;;
3647;SDS011;1840;48.892;15.312;2022-10-14T01:32:44;72.40;;;27.40;;
3647;SDS011;1840;48.892;15.312;2022-10-14T01:35:21;95.83;;;27.80;;
3647;SDS011;1840;48.892;15.312;2022-10-14T01:37:54;140.47;;;27.77;;
3647;SDS011;1840;48.892;15.312;2022-10-14T01:40:27;122.20;;;29.83;;
3647;SDS011;1840;48.892;15.312;2022-10-14T01:42:59;45.90;;;26.60;;
3647;SDS011;1840;48.892;15.312;2022-10-14T01:45:30;42.73;;;26.10;;
3647;SDS011;1840;48.892;15.312;2022-10-14T01:48:06;43.63;;;27.57;;
3647;SDS011;1840;48.892;15.312;2022-10-14T01:50:36;68.63;;;28.37;;
3647;SDS011;1840;48.892;15.312;2022-10-14T01:53:07;46.30;;;27.20;;
3647;SDS011;1840;48.892;15.312;2022-10-14T01:55:41;124.67;;;30.90;;
3647;SDS011;1840;48.892;15.312;2022-10-14T01:58:12;42.60;;;25.60;;
3647;SDS011;1840;48.892;15.312;2022-10-14T02:00:44;84.60;;;27.63;;
3647;SDS011;1840;48.892;15.312;2022-10-14T02:03:13;43.27;;;26.63;;
3647;SDS011;1840;48.892;15.312;2022-10-14T02:05:42;267.23;;;35.63;;
3647;SDS011;1840;48.892;15.312;2022-10-14T02:08:24;41.47;;;26.73;;
3647;SDS011;1840;48.892;15.312;2022-10-14T02:11:02;40.60;;;26.50;;
3647;SDS011;1840;48.892;15.312;2022-10-14T02:13:38;37.40;;;25.90;;
3647;SDS011;1840;48.892;15.312;2022-10-14T02:16:20;264.20;;;34.10;;
3647;SDS011;1840;48.892;15.312;2022-10-14T02:18:53;79.17;;;27.13;;
3647;SDS011;1840;48.892;15.312;2022-10-14T02:21:28;75.43;;;26.60;;
3647;SDS011;1840;48.892;15.312;2022-10-14T02:24:03;42.23;;;24.33;;
3647;SDS011;1840;48.892;15.312;2022-10-14T02:26:35;32.77;;;23.27;;
3647;SDS011;1840;48.892;15.312;2022-10-14T02:29:05;207.90;;;30.40;;
3647;SDS011;1840;48.892;15.312;2022-10-14T02:31:35;46.23;;;25.13;;
3647;SDS011;1840;48.892;15.312;2022-10-14T02:34:06;193.40;;;31.20;;
3647;SDS011;1840;48.892;15.312;2022-10-14T02:36:37;47.37;;;25.30;;
3647;SDS011;1840;48.892;15.312;2022-10-14T02:39:11;32.50;;;22.67;;
3647;SDS011;1840;48.892;15.312;2022-10-14T02:41:41;60.47;;;25.07;;
3647;SDS011;1840;48.892;15.312;2022-10-14T02:44:09;44.60;;;22.27;;
3647;SDS011;1840;48.892;15.312;2022-10-14T02:46:39;35.17;;;22.63;;
3647;SDS011;1840;48.892;15.312;2022-10-14T02:49:07;82.33;;;24.90;;
3647;SDS011;1840;48.892;15.312;2022-10-14T02:51:35;27.73;;;19.70;;
3647;SDS011;1840;48.892;15.312;2022-10-14T02:54:03;86.27;;;25.23;;
3647;SDS011;1840;48.892;15.312;2022-10-14T02:56:31;132.67;;;27.80;;
3647;SDS011;1840;48.892;15.312;2022-10-14T02:58:59;131.70;;;26.33;;
3647;SDS011;1840;48.892;15.312;2022-10-14T03:01:27;40.63;;;23.87;;
3647;SDS011;1840;48.892;15.312;2022-10-14T03:04:03;161.53;;;29.83;;
3647;SDS011;1840;48.892;15.312;2022-10-14T03:06:31;170.80;;;29.07;;
3647;SDS011;1840;48.892;15.312;2022-10-14T03:08:59;89.17;;;26.37;;
3647;SDS011;1840;48.892;15.312;2022-10-14T03:11:27;44.23;;;25.00;;
3647;SDS011;1840;48.892;15.312;2022-10-14T03:13:55;244.63;;;34.60;;
3647;SDS011;1840;48.892;15.312;2022-10-14T03:16:23;118.23;;;28.50;;
3647;SDS011;1840;48.892;15.312;2022-10-14T03:18:51;41.20;;;26.17;;
3647;SDS011;1840;48.892;15.312;2022-10-14T03:21:21;36.97;;;24.07;;
3647;SDS011;1840;48.892;15.312;2022-10-14T03:23:49;64.43;;;27.53;;
3647;SDS011;1840;48.892;15.312;2022-10-14T03:26:18;39.63;;;25.13;;
3647;SDS011;1840;48.892;15.312;2022-10-14T03:28:46;36.10;;;22.73;;
3647;SDS011;1840;48.892;15.312;2022-10-14T03:31:14;60.50;;;24.67;;
3647;SDS011;1840;48.892;15.312;2022-10-14T03:33:42;53.67;;;23.30;;
3647;SDS011;1840;48.892;15.312;2022-10-14T03:36:10;55.10;;;25.23;;
3647;SDS011;1840;48.892;15.312;2022-10-14T03:38:39;36.13;;;23.30;;
3647;SDS011;1840;48.892;15.312;2022-10-14T03:41:08;74.20;;;25.53;;
3647;SDS011;1840;48.892;15.312;2022-10-14T03:43:36;37.53;;;22.30;;
3647;SDS011;1840;48.892;15.312;2022-10-14T03:46:04;62.67;;;25.70;;
3647;SDS011;1840;48.892;15.312;2022-10-14T03:48:32;37.10;;;21.87;;
3647;SDS011;1840;48.892;15.312;2022-10-14T03:51:00;75.97;;;27.30;;
3647;SDS011;1840;48.892;15.312;2022-10-14T03:53:28;32.33;;;23.40;;
3647;SDS011;1840;48.892;15.312;2022-10-14T03:55:57;58.27;;;23.53;;
3647;SDS011;1840;48.892;15.312;2022-10-14T03:58:25;55.00;;;26.10;;
3647;SDS011;1840;48.892;15.312;2022-10-14T04:00:53;39.93;;;22.90;;
3647;SDS011;1840;48.892;15.312;2022-10-14T04:03:22;33.87;;;20.70;;
3647;SDS011;1840;48.892;15.312;2022-10-14T04:05:50;27.93;;;19.00;;
3647;SDS011;1840;48.892;15.312;2022-10-14T04:08:18;28.50;;;18.30;;
3647;SDS011;1840;48.892;15.312;2022-10-14T04:10:50;38.60;;;20.30;;
3647;SDS011;1840;48.892;15.312;2022-10-14T04:13:20;30.77;;;21.23;;
3647;SDS011;1840;48.892;15.312;2022-10-14T04:15:48;52.33;;;22.93;;
3647;SDS011;1840;48.892;15.312;2022-10-14T04:18:16;67.70;;;27.13;;
3647;SDS011;1840;48.892;15.312;2022-10-14T04:20:46;34.97;;;23.60;;
3647;SDS011;1840;48.892;15.312;2022-10-14T04:23:14;50.50;;;23.97;;
3647;SDS011;1840;48.892;15.312;2022-10-14T04:25:42;58.50;;;29.13;;
3647;SDS011;1840;48.892;15.312;2022-10-14T04:28:10;43.00;;;28.03;;
3647;SDS011;1840;48.892;15.312;2022-10-14T04:30:39;41.43;;;25.50;;
3647;SDS011;1840;48.892;15.312;2022-10-14T04:33:08;35.27;;;25.03;;
3647;SDS011;1840;48.892;15.312;2022-10-14T04:35:36;56.63;;;26.27;;
3647;SDS011;1840;48.892;15.312;2022-10-14T04:38:04;62.90;;;29.70;;
3647;SDS011;1840;48.892;15.312;2022-10-14T04:40:32;46.57;;;26.67;;
3647;SDS011;1840;48.892;15.312;2022-10-14T04:43:00;84.50;;;26.30;;
3647;SDS011;1840;48.892;15.312;2022-10-14T04:45:28;57.87;;;27.27;;
3647;SDS011;1840;48.892;15.312;2022-10-14T04:47:57;77.70;;;31.53;;
3647;SDS011;1840;48.892;15.312;2022-10-14T04:50:25;45.93;;;27.30;;
3647;SDS011;1840;48.892;15.312;2022-10-14T04:52:53;47.30;;;27.77;;
3647;SDS011;1840;48.892;15.312;2022-10-14T04:55:21;37.93;;;23.87;;
3647;SDS011;1840;48.892;15.312;2022-10-14T04:57:49;45.20;;;27.53;;
3647;SDS011;1840;48.892;15.312;2022-10-14T05:00:18;41.73;;;26.10;;
3647;SDS011;1840;48.892;15.312;2022-10-14T05:02:46;41.33;;;26.83;;
3647;SDS011;1840;48.892;15.312;2022-10-14T05:05:15;40.93;;;26.13;;
3647;SDS011;1840;48.892;15.312;2022-10-14T05:07:43;44.93;;;27.17;;
3647;SDS011;1840;48.892;15.312;2022-10-14T05:10:11;36.43;;;23.20;;
3647;SDS011;1840;48.892;15.312;2022-10-14T05:12:40;45.60;;;25.90;;
3647;SDS011;1840;48.892;15.312;2022-10-14T05:15:08;43.77;;;26.00;;
3647;SDS011;1840;48.892;15.312;2022-10-14T05:17:37;41.20;;;26.13;;
3647;SDS011;1840;48.892;15.312;2022-10-14T05:20:09;45.60;;;26.20;;
3647;SDS011;1840;48.892;15.312;2022-10-14T05:22:39;42.43;;;26.87;;
3647;SDS011;1840;48.892;15.312;2022-10-14T05:25:07;41.33;;;27.43;;
3647;SDS011;1840;48.892;15.312;2022-10-14T05:27:35;49.33;;;29.70;;
3647;SDS011;1840;48.892;15.312;2022-10-14T05:30:04;42.97;;;26.27;;
3647;SDS011;1840;48.892;15.312;2022-10-14T05:32:32;43.83;;;27.20;;
3647;SDS011;1840;48.892;15.312;2022-10-14T05:35:03;44.30;;;26.37;;
3647;SDS011;1840;48.892;15.312;2022-10-14T05:37:31;47.23;;;27.10;;
3647;SDS011;1840;48.892;15.312;2022-10-14T05:40:01;51.30;;;29.83;;
3647;SDS011;1840;48.892;15.312;2022-10-14T05:42:29;58.30;;;29.50;;
3647;SDS011;1840;48.892;15.312;2022-10-14T05:44:57;43.60;;;26.90;;
3647;SDS011;1840;48.892;15.312;2022-10-14T05:47:25;45.30;;;28.50;;
3647;SDS011;1840;48.892;15.312;2022-10-14T05:49:53;45.80;;;28.50;;
3647;SDS011;1840;48.892;15.312;2022-10-14T05:52:22;48.83;;;29.53;;
3647;SDS011;1840;48.892;15.312;2022-10-14T05:54:50;53.13;;;31.40;;
3647;SDS011;1840;48.892;15.312;2022-10-14T05:57:19;50.53;;;28.77;;
3647;SDS011;1840;48.892;15.312;2022-10-14T05:59:47;48.30;;;27.50;;
3647;SDS011;1840;48.892;15.312;2022-10-14T06:02:15;49.67;;;30.83;;
3647;SDS011;1840;48.892;15.312;2022-10-14T06:04:43;55.63;;;30.87;;
3647;SDS011;1840;48.892;15.312;2022-10-14T06:07:12;48.43;;;28.67;;
3647;SDS011;1840;48.892;15.312;2022-10-14T06:09:40;43.10;;;26.73;;
3647;SDS011;1840;48.892;15.312;2022-10-14T06:12:08;42.10;;;26.57;;
3647;SDS011;1840;48.892;15.312;2022-10-14T06:14:38;51.87;;;28.87;;
3647;SDS011;1840;48.892;15.312;2022-10-14T06:17:06;44.87;;;27.60;;
3647;SDS011;1840;48.892;15.312;2022-10-14T06:19:34;49.63;;;29.80;;
3647;SDS011;1840;48.892;15.312;2022-10-14T06:22:02;46.03;;;29.57;;
3647;SDS011;1840;48.892;15.312;2022-10-14T06:24:30;45.33;;;27.10;;
3647;SDS011;1840;48.892;15.312;2022-10-14T06:26:58;49.47;;;30.10;;
3647;SDS011;1840;48.892;15.312;2022-10-14T06:29:26;42.03;;;27.07;;
3647;SDS011;1840;48.892;15.312;2022-10-14T06:31:59;50.00;;;30.17;;
3647;SDS011;1840;48.892;15.312;2022-10-14T06:34:27;44.80;;;28.30;;
3647;SDS011;1840;48.892;15.312;2022-10-14T06:36:55;44.60;;;27.80;;
3647;SDS011;1840;48.892;15.312;2022-10-14T06:39:27;39.00;;;25.93;;
3647;SDS011;1840;48.892;15.312;2022-10-14T06:41:55;46.77;;;27.97;;
3647;SDS011;1840;48.892;15.312;2022-10-14T06:44:23;43.90;;;27.20;;
3647;SDS011;1840;48.892;15.312;2022-10-14T06:46:51;52.57;;;28.63;;
3647;SDS011;1840;48.892;15.312;2022-10-14T06:49:21;46.10;;;28.07;;
3647;SDS011;1840;48.892;15.312;2022-10-14T06:51:49;48.77;;;28.17;;
3647;SDS011;1840;48.892;15.312;2022-10-14T06:54:17;46.40;;;29.10;;
3647;SDS011;1840;48.892;15.312;2022-10-14T06:56:45;54.57;;;32.20;;
3647;SDS011;1840;48.892;15.312;2022-10-14T06:59:13;41.43;;;27.07;;
3647;SDS011;1840;48.892;15.312;2022-10-14T07:01:41;43.90;;;27.83;;
3647;SDS011;1840;48.892;15.312;2022-10-14T07:04:09;42.93;;;26.83;;
3647;SDS011;1840;48.892;15.312;2022-10-14T07:06:39;49.63;;;28.20;;
3647;SDS011;1840;48.892;15.312;2022-10-14T07:09:07;55.60;;;32.37;;
3647;SDS011;1840;48.892;15.312;2022-10-14T07:11:35;58.37;;;31.63;;
3647;SDS011;1840;48.892;15.312;2022-10-14T07:14:03;53.80;;;30.93;;
3647;SDS011;1840;48.892;15.312;2022-10-14T07:16:31;51.30;;;32.60;;
3647;SDS011;1840;48.892;15.312;2022-10-14T07:18:59;54.90;;;32.00;;
3647;SDS011;1840;48.892;15.312;2022-10-14T07:21:27;44.10;;;28.10;;
3647;SDS011;1840;48.892;15.312;2022-10-14T07:23:57;60.07;;;33.17;;
3647;SDS011;1840;48.892;15.312;2022-10-14T07:26:25;54.43;;;31.57;;
3647;SDS011;1840;48.892;15.312;2022-10-14T07:28:56;48.00;;;29.50;;
3647;SDS011;1840;48.892;15.312;2022-10-14T07:31:24;47.50;;;28.77;;
3647;SDS011;1840;48.892;15.312;2022-10-14T07:33:53;52.63;;;32.53;;
3647;SDS011;1840;48.892;15.312;2022-10-14T07:36:21;49.90;;;30.53;;
3647;SDS011;1840;48.892;15.312;2022-10-14T07:38:49;53.27;;;30.10;;
3647;SDS011;1840;48.892;15.312;2022-10-14T07:41:20;45.77;;;28.53;;
3647;SDS011;1840;48.892;15.312;2022-10-14T07:43:49;58.80;;;33.03;;
3647;SDS011;1840;48.892;15.312;2022-10-14T07:46:20;46.87;;;27.20;;
3647;SDS011;1840;48.892;15.312;2022-10-14T07:48:57;43.40;;;28.00;;
3647;SDS011;1840;48.892;15.312;2022-10-14T07:51:26;53.80;;;31.00;;
3647;SDS011;1840;48.892;15.312;2022-10-14T07:53:56;44.03;;;27.40;;
3647;SDS011;1840;48.892;15.312;2022-10-14T07:56:27;54.63;;;32.53;;
3647;SDS011;1840;48.892;15.312;2022-10-14T07:58:55;53.37;;;29.60;;
3647;SDS011;1840;48.892;15.312;2022-10-14T08:01:26;49.00;;;29.43;;
3647;SDS011;1840;48.892;15.312;2022-10-14T08:03:54;45.93;;;27.90;;
3647;SDS011;1840;48.892;15.312;2022-10-14T08:06:22;47.60;;;28.60;;
3647;SDS011;1840;48.892;15.312;2022-10-14T08:08:50;53.80;;;33.33;;
3647;SDS011;1840;48.892;15.312;2022-10-14T08:11:19;44.80;;;29.80;;
3647;SDS011;1840;48.892;15.312;2022-10-14T08:13:50;48.97;;;29.67;;
3647;SDS011;1840;48.892;15.312;2022-10-14T08:16:23;44.20;;;29.83;;
3647;SDS011;1840;48.892;15.312;2022-10-14T08:18:53;57.23;;;35.17;;
3647;SDS011;1840;48.892;15.312;2022-10-14T08:21:22;48.10;;;30.67;;
3647;SDS011;1840;48.892;15.312;2022-10-14T08:23:51;48.23;;;30.23;;
3647;SDS011;1840;48.892;15.312;2022-10-14T08:26:20;52.70;;;32.80;;
3647;SDS011;1840;48.892;15.312;2022-10-14T08:28:51;50.07;;;31.60;;
3647;SDS011;1840;48.892;15.312;2022-10-14T08:31:20;58.70;;;33.93;;
3647;SDS011;1840;48.892;15.312;2022-10-14T08:33:48;49.53;;;31.27;;
3647;SDS011;1840;48.892;15.312;2022-10-14T08:36:17;60.10;;;33.33;;
3647;SDS011;1840;48.892;15.312;2022-10-14T08:38:46;53.27;;;32.40;;
3647;SDS011;1840;48.892;15.312;2022-10-14T08:41:23;48.70;;;32.00;;
3647;SDS011;1840;48.892;15.312;2022-10-14T08:44:04;45.57;;;29.47;;
3647;SDS011;1840;48.892;15.312;2022-10-14T08:46:39;49.73;;;32.00;;
3647;SDS011;1840;48.892;15.312;2022-10-14T08:49:20;51.40;;;30.53;;
3647;SDS011;1840;48.892;15.312;2022-10-14T08:51:52;55.40;;;32.13;;
3647;SDS011;1840;48.892;15.312;2022-10-14T08:54:28;47.37;;;28.03;;
3647;SDS011;1840;48.892;15.312;2022-10-14T08:57:00;58.67;;;34.03;;
3647;SDS011;1840;48.892;15.312;2022-10-14T08:59:31;50.07;;;30.37;;
3647;SDS011;1840;48.892;15.312;2022-10-14T09:02:13;43.77;;;28.73;;
3647;SDS011;1840;48.892;15.312;2022-10-14T09:04:47;41.30;;;26.50;;
3647;SDS011;1840;48.892;15.312;2022-10-14T09:07:16;32.80;;;22.20;;
3647;SDS011;1840;48.892;15.312;2022-10-14T09:09:46;38.50;;;24.67;;
3647;SDS011;1840;48.892;15.312;2022-10-14T09:12:19;32.03;;;20.57;;
3647;SDS011;1840;48.892;15.312;2022-10-14T09:14:53;35.60;;;20.10;;
3647;SDS011;1840;48.892;15.312;2022-10-14T09:17:30;26.83;;;17.30;;
3647;SDS011;1840;48.892;15.312;2022-10-14T09:20:09;27.13;;;19.27;;
3647;SDS011;1840;48.892;15.312;2022-10-14T09:22:43;27.67;;;16.57;;
3647;SDS011;1840;48.892;15.312;2022-10-14T09:25:13;30.60;;;16.10;;
3647;SDS011;1840;48.892;15.312;2022-10-14T09:27:42;26.27;;;16.90;;
3647;SDS011;1840;48.892;15.312;2022-10-14T09:30:16;26.27;;;17.77;;
3647;SDS011;1840;48.892;15.312;2022-10-14T09:32:45;21.53;;;14.27;;
3647;SDS011;1840;48.892;15.312;2022-10-14T09:35:18;23.73;;;13.63;;
3647;SDS011;1840;48.892;15.312;2022-10-14T09:37:50;20.93;;;12.60;;
3647;SDS011;1840;48.892;15.312;2022-10-14T09:40:20;25.93;;;13.47;;
3647;SDS011;1840;48.892;15.312;2022-10-14T09:42:56;19.43;;;12.80;;
3647;SDS011;1840;48.892;15.312;2022-10-14T09:45:27;19.50;;;12.23;;
3647;SDS011;1840;48.892;15.312;2022-10-14T09:48:05;22.13;;;12.90;;
3647;SDS011;1840;48.892;15.312;2022-10-14T09:50:40;20.63;;;13.53;;
3647;SDS011;1840;48.892;15.312;2022-10-14T09:53:15;14.57;;;10.70;;
3647;SDS011;1840;48.892;15.312;2022-10-14T09:55:47;12.50;;;8.50;;
3647;SDS011;1840;48.892;15.312;2022-10-14T09:58:20;21.60;;;11.23;;
3647;SDS011;1840;48.892;15.312;2022-10-14T10:01:00;10.60;;;7.53;;
3647;SDS011;1840;48.892;15.312;2022-10-14T10:03:30;10.77;;;7.10;;
3647;SDS011;1840;48.892;15.312;2022-10-14T10:06:04;19.37;;;7.30;;
3647;SDS011;1840;48.892;15.312;2022-10-14T10:08:37;10.07;;;6.70;;
3647;SDS011;1840;48.892;15.312;2022-10-14T10:11:09;11.67;;;7.10;;
3647;SDS011;1840;48.892;15.312;2022-10-14T10:13:39;8.13;;;6.07;;
3647;SDS011;1840;48.892;15.312;2022-10-14T10:16:19;10.90;;;5.90;;
3647;SDS011;1840;48.892;15.312;2022-10-14T10:18:49;10.37;;;7.07;;
3647;SDS011;1840;48.892;15.312;2022-10-14T10:21:21;8.03;;;5.00;;
3647;SDS011;1840;48.892;15.312;2022-10-14T10:23:55;13.40;;;5.30;;
3647;SDS011;1840;48.892;15.312;2022-10-14T10:26:25;12.07;;;4.83;;
3647;SDS011;1840;48.892;15.312;2022-10-14T10:28:58;15.13;;;7.00;;
3647;SDS011;1840;48.892;15.312;2022-10-14T10:34:34;7.80;;;4.27;;
3647;SDS011;1840;48.892;15.312;2022-10-14T10:37:23;5.70;;;4.03;;
3647;SDS011;1840;48.892;15.312;2022-10-14T10:39:59;8.57;;;3.87;;
3647;SDS011;1840;48.892;15.312;2022-10-14T10:42:46;6.57;;;4.00;;
3647;SDS011;1840;48.892;15.312;2022-10-14T10:45:25;8.10;;;3.60;;
3647;SDS011;1840;48.892;15.312;2022-10-14T10:48:05;7.63;;;4.73;;
3647;SDS011;1840;48.892;15.312;2022-10-14T10:50:41;5.37;;;3.40;;
3647;SDS011;1840;48.892;15.312;2022-10-14T10:56:10;5.93;;;3.23;;
3647;SDS011;1840;48.892;15.312;2022-10-14T10:58:47;7.90;;;4.30;;
3647;SDS011;1840;48.892;15.312;2022-10-14T11:01:30;6.73;;;3.60;;
3647;SDS011;1840;48.892;15.312;2022-10-14T11:04:23;12.60;;;3.80;;
3647;SDS011;1840;48.892;15.312;2022-10-14T11:07:01;37.63;;;6.00;;
3647;SDS011;1840;48.892;15.312;2022-10-14T11:09:58;9.90;;;3.80;;
3647;SDS011;1840;48.892;15.312;2022-10-14T11:12:51;8.00;;;4.47;;
3647;SDS011;1840;48.892;15.312;2022-10-14T11:15:30;5.17;;;3.20;;
3647;SDS011;1840;48.892;15.312;2022-10-14T11:18:07;9.57;;;4.17;;
3647;SDS011;1840;48.892;15.312;2022-10-14T11:20:45;6.50;;;3.90;;
3647;SDS011;1840;48.892;15.312;2022-10-14T11:23:28;5.90;;;3.60;;
3647;SDS011;1840;48.892;15.312;2022-10-14T11:26:21;5.27;;;3.00;;
3647;SDS011;1840;48.892;15.312;2022-10-14T11:29:04;6.57;;;3.00;;
3647;SDS011;1840;48.892;15.312;2022-10-14T11:31:41;4.53;;;2.83;;
3647;SDS011;1840;48.892;15.312;2022-10-14T11:34:21;6.20;;;3.37;;
3647;SDS011;1840;48.892;15.312;2022-10-14T11:37:00;7.73;;;3.40;;
3647;SDS011;1840;48.892;15.312;2022-10-14T11:39:37;11.23;;;5.00;;
3647;SDS011;1840;48.892;15.312;2022-10-14T11:42:24;8.13;;;2.87;;
3647;SDS011;1840;48.892;15.312;2022-10-14T11:44:58;10.93;;;3.43;;
3647;SDS011;1840;48.892;15.312;2022-10-14T11:47:33;5.10;;;2.67;;
3647;SDS011;1840;48.892;15.312;2022-10-14T11:50:10;6.77;;;3.20;;
3647;SDS011;1840;48.892;15.312;2022-10-14T11:52:44;4.97;;;2.80;;
3647;SDS011;1840;48.892;15.312;2022-10-14T11:55:17;5.20;;;3.20;;
3647;SDS011;1840;48.892;15.312;2022-10-14T11:57:48;4.73;;;3.33;;
3647;SDS011;1840;48.892;15.312;2022-10-14T12:00:20;9.17;;;3.27;;
3647;SDS011;1840;48.892;15.312;2022-10-14T12:02:51;5.63;;;2.93;;
3647;SDS011;1840;48.892;15.312;2022-10-14T12:05:25;6.23;;;3.47;;
3647;SDS011;1840;48.892;15.312;2022-10-14T12:08:05;10.83;;;3.03;;
3647;SDS011;1840;48.892;15.312;2022-10-14T12:10:44;6.43;;;3.20;;
3647;SDS011;1840;48.892;15.312;2022-10-14T12:13:14;7.10;;;3.03;;
3647;SDS011;1840;48.892;15.312;2022-10-14T12:15:46;8.17;;;3.17;;
3647;SDS011;1840;48.892;15.312;2022-10-14T12:18:16;26.70;;;5.40;;
3647;SDS011;1840;48.892;15.312;2022-10-14T12:20:47;10.40;;;4.00;;
3647;SDS011;1840;48.892;15.312;2022-10-14T12:23:23;6.60;;;3.20;;
3647;SDS011;1840;48.892;15.312;2022-10-14T12:25:56;5.57;;;2.80;;
3647;SDS011;1840;48.892;15.312;2022-10-14T12:28:30;9.37;;;3.80;;
3647;SDS011;1840;48.892;15.312;2022-10-14T12:31:19;11.83;;;4.30;;
3647;SDS011;1840;48.892;15.312;2022-10-14T12:34:23;6.30;;;3.70;;
3647;SDS011;1840;48.892;15.312;2022-10-14T12:36:55;12.27;;;4.87;;
3647;SDS011;1840;48.892;15.312;2022-10-14T12:39:29;6.03;;;3.30;;
3647;SDS011;1840;48.892;15.312;2022-10-14T12:42:01;7.67;;;3.27;;
3647;SDS011;1840;48.892;15.312;2022-10-14T12:44:32;4.20;;;3.00;;
3647;SDS011;1840;48.892;15.312;2022-10-14T12:47:03;6.87;;;3.13;;
3647;SDS011;1840;48.892;15.312;2022-10-14T12:49:31;6.07;;;3.90;;
3647;SDS011;1840;48.892;15.312;2022-10-14T12:52:03;7.97;;;3.97;;
3647;SDS011;1840;48.892;15.312;2022-10-14T12:54:35;8.33;;;3.67;;
3647;SDS011;1840;48.892;15.312;2022-10-14T12:57:16;10.13;;;4.23;;
3647;SDS011;1840;48.892;15.312;2022-10-14T12:59:52;9.20;;;4.63;;
3647;SDS011;1840;48.892;15.312;2022-10-14T13:02:25;5.43;;;3.77;;
3647;SDS011;1840;48.892;15.312;2022-10-14T13:04:58;7.67;;;3.90;;
3647;SDS011;1840;48.892;15.312;2022-10-14T13:07:40;6.33;;;3.37;;
3647;SDS011;1840;48.892;15.312;2022-10-14T13:10:38;11.00;;;4.27;;
3647;SDS011;1840;48.892;15.312;2022-10-14T13:25:11;7.60;;;4.43;;
3647;SDS011;1840;48.892;15.312;2022-10-14T13:27:48;7.33;;;3.77;;
3647;SDS011;1840;48.892;15.312;2022-10-14T13:30:23;7.00;;;4.17;;
3647;SDS011;1840;48.892;15.312;2022-10-14T13:33:03;5.00;;;3.40;;
3647;SDS011;1840;48.892;15.312;2022-10-14T13:35:41;7.27;;;3.30;;
3647;SDS011;1840;48.892;15.312;2022-10-14T13:38:18;7.87;;;3.23;;
3647;SDS011;1840;48.892;15.312;2022-10-14T13:40:49;5.33;;;3.50;;
3647;SDS011;1840;48.892;15.312;2022-10-14T13:43:21;9.33;;;4.50;;
3647;SDS011;1840;48.892;15.312;2022-10-14T13:45:54;5.73;;;3.90;;
3647;SDS011;1840;48.892;15.312;2022-10-14T13:48:29;6.43;;;4.43;;
3647;SDS011;1840;48.892;15.312;2022-10-14T13:51:05;9.00;;;5.37;;
3647;SDS011;1840;48.892;15.312;2022-10-14T13:54:13;8.53;;;4.60;;
3647;SDS011;1840;48.892;15.312;2022-10-14T13:56:54;9.20;;;4.90;;
3647;SDS011;1840;48.892;15.312;2022-10-14T13:59:46;8.40;;;5.00;;
3647;SDS011;1840;48.892;15.312;2022-10-14T14:02:35;9.70;;;5.20;;
3647;SDS011;1840;48.892;15.312;2022-10-14T14:05:06;10.70;;;4.40;;
3647;SDS011;1840;48.892;15.312;2022-10-14T14:07:42;7.43;;;4.37;;
3647;SDS011;1840;48.892;15.312;2022-10-14T14:10:31;8.60;;;5.57;;
3647;SDS011;1840;48.892;15.312;2022-10-14T14:13:09;8.03;;;5.83;;
3647;SDS011;1840;48.892;15.312;2022-10-14T14:15:41;19.53;;;10.70;;
3647;SDS011;1840;48.892;15.312;2022-10-14T14:18:22;15.07;;;5.77;;
3647;SDS011;1840;48.892;15.312;2022-10-14T14:21:15;4.70;;;3.20;;
3647;SDS011;1840;48.892;15.312;2022-10-14T14:23:50;8.70;;;4.23;;
3647;SDS011;1840;48.892;15.312;2022-10-14T14:26:20;5.57;;;3.50;;
3647;SDS011;1840;48.892;15.312;2022-10-14T14:28:53;7.50;;;3.20;;
3647;SDS011;1840;48.892;15.312;2022-10-14T14:31:23;8.47;;;4.00;;
3647;SDS011;1840;48.892;15.312;2022-10-14T14:34:13;5.50;;;3.50;;
3647;SDS011;1840;48.892;15.312;2022-10-14T14:36:43;6.07;;;3.27;;
3647;SDS011;1840;48.892;15.312;2022-10-14T14:39:19;9.07;;;3.73;;
3647;SDS011;1840;48.892;15.312;2022-10-14T14:41:48;10.33;;;3.40;;
3647;SDS011;1840;48.892;15.312;2022-10-14T14:44:18;7.53;;;4.00;;
3647;SDS011;1840;48.892;15.312;2022-10-14T14:46:54;9.23;;;4.00;;
3647;SDS011;1840;48.892;15.312;2022-10-14T14:49:25;7.57;;;3.80;;
3647;SDS011;1840;48.892;15.312;2022-10-14T14:51:55;8.70;;;5.20;;
3647;SDS011;1840;48.892;15.312;2022-10-14T14:54:24;10.73;;;4.97;;
3647;SDS011;1840;48.892;15.312;2022-10-14T14:56:54;7.80;;;4.27;;
3647;SDS011;1840;48.892;15.312;2022-10-14T14:59:29;6.90;;;3.97;;
3647;SDS011;1840;48.892;15.312;2022-10-14T15:02:02;10.60;;;4.13;;
3647;SDS011;1840;48.892;15.312;2022-10-14T15:04:39;5.90;;;4.47;;
3647;SDS011;1840;48.892;15.312;2022-10-14T15:07:11;11.77;;;3.60;;
3647;SDS011;1840;48.892;15.312;2022-10-14T15:09:47;12.60;;;4.60;;
3647;SDS011;1840;48.892;15.312;2022-10-14T15:12:17;7.50;;;5.10;;
3647;SDS011;1840;48.892;15.312;2022-10-14T15:14:49;10.20;;;5.47;;
3647;SDS011;1840;48.892;15.312;2022-10-14T15:17:26;7.30;;;4.37;;
3647;SDS011;1840;48.892;15.312;2022-10-14T15:19:56;8.90;;;5.53;;
3647;SDS011;1840;48.892;15.312;2022-10-14T15:22:30;7.57;;;4.70;;
3647;SDS011;1840;48.892;15.312;2022-10-14T15:25:05;10.83;;;5.10;;
3647;SDS011;1840;48.892;15.312;2022-10-14T15:27:39;6.90;;;4.13;;
3647;SDS011;1840;48.892;15.312;2022-10-14T15:30:21;7.67;;;4.27;;
3647;SDS011;1840;48.892;15.312;2022-10-14T15:32:56;10.60;;;4.60;;
3647;SDS011;1840;48.892;15.312;2022-10-14T15:35:25;13.90;;;7.67;;